createdAt,value
2018-12-07T00:01:07.022Z,9.57
2018-12-07T00:03:35.508Z,10.07
2018-12-07T00:06:04.877Z,10.40
2018-12-07T00:08:33.418Z,9.97
2018-12-07T00:11:02.921Z,9.80
2018-12-07T00:13:32.583Z,10.17
2018-12-07T00:16:01.042Z,10.30
2018-12-07T00:18:29.521Z,10.20
2018-12-07T00:20:58.947Z,10.37
2018-12-07T00:23:28.076Z,10.00
2018-12-07T00:25:56.854Z,10.27
2018-12-07T00:28:25.319Z,10.73
2018-12-07T00:30:53.781Z,11.10
2018-12-07T00:33:22.450Z,11.07
2018-12-07T00:35:52.278Z,11.07
2018-12-07T00:38:21.127Z,11.17
2018-12-07T00:40:50.954Z,10.77
2018-12-07T00:43:19.392Z,10.73
2018-12-07T00:45:51.419Z,10.93
2018-12-07T00:48:20.112Z,10.57
2018-12-07T00:50:48.597Z,10.03
2018-12-07T00:53:17.580Z,10.13
2018-12-07T00:55:46.044Z,10.47
2018-12-07T00:58:14.494Z,10.60
2018-12-07T01:00:44.007Z,11.67
2018-12-07T01:03:12.776Z,12.73
2018-12-07T01:05:41.612Z,11.53
2018-12-07T01:08:10.764Z,11.97
2018-12-07T01:10:39.748Z,12.77
2018-12-07T01:13:09.297Z,12.80
2018-12-07T01:15:37.774Z,13.13
2018-12-07T01:18:06.920Z,11.80
2018-12-07T01:20:35.659Z,11.80
2018-12-07T01:23:04.112Z,11.63
2018-12-07T01:25:32.599Z,11.37
2018-12-07T01:28:01.035Z,11.17
2018-12-07T01:30:29.730Z,11.23
2018-12-07T01:32:58.554Z,10.80
2018-12-07T01:35:27.037Z,9.17
2018-12-07T01:37:55.470Z,9.83
2018-12-07T01:40:23.949Z,10.23
2018-12-07T01:42:52.419Z,10.83
2018-12-07T01:45:20.882Z,10.90
2018-12-07T01:47:49.387Z,11.00
2018-12-07T01:50:18.545Z,9.90
2018-12-07T01:52:47.022Z,9.60
2018-12-07T01:55:15.843Z,8.47
2018-12-07T01:57:44.292Z,8.53
2018-12-07T02:00:12.741Z,8.30
2018-12-07T02:02:41.579Z,9.00
2018-12-07T02:05:10.044Z,9.07
2018-12-07T02:07:38.508Z,8.60
2018-12-07T02:10:07.859Z,9.77
2018-12-07T02:12:36.791Z,9.30
2018-12-07T02:15:06.029Z,9.63
2018-12-07T02:17:34.860Z,8.93
2018-12-07T02:20:03.567Z,7.80
2018-12-07T02:22:32.265Z,7.70
2018-12-07T02:25:00.722Z,6.90
2018-12-07T02:27:31.738Z,7.03
2018-12-07T02:30:00.425Z,7.20
2018-12-07T02:32:28.907Z,6.83
2018-12-07T02:34:57.337Z,6.53
2018-12-07T02:37:25.799Z,7.00
2018-12-07T02:39:56.885Z,6.60
2018-12-07T02:42:25.482Z,5.90
2018-12-07T02:44:54.254Z,5.70
2018-12-07T02:47:23.001Z,5.80
2018-12-07T02:49:51.454Z,5.30
2018-12-07T02:52:20.158Z,5.03
2018-12-07T02:54:48.611Z,5.53
2018-12-07T02:57:17.070Z,5.07
2018-12-07T02:59:45.911Z,5.03
2018-12-07T03:02:14.352Z,4.97
2018-12-07T03:04:43.200Z,4.67
2018-12-07T03:07:11.887Z,4.93
2018-12-07T03:09:40.375Z,5.67
2018-12-07T03:12:09.354Z,6.53
2018-12-07T03:14:37.830Z,6.70
2018-12-07T03:17:06.287Z,7.23
2018-12-07T03:19:34.755Z,7.30
2018-12-07T03:22:03.739Z,7.23
2018-12-07T03:24:32.210Z,7.80
2018-12-07T03:27:00.667Z,6.60
2018-12-07T03:29:29.139Z,7.03
2018-12-07T03:31:58.431Z,6.97
2018-12-07T03:34:26.903Z,6.83
2018-12-07T03:36:55.449Z,6.73
2018-12-07T03:39:25.506Z,5.97
2018-12-07T03:41:53.936Z,5.93
2018-12-07T03:44:22.404Z,5.27
2018-12-07T03:46:50.833Z,5.20
2018-12-07T03:49:19.306Z,4.60
2018-12-07T03:51:47.757Z,4.50
2018-12-07T03:54:16.266Z,4.30
2018-12-07T03:56:45.127Z,4.50
2018-12-07T03:59:13.595Z,4.13
2018-12-07T04:01:42.171Z,3.60
2018-12-07T04:04:10.638Z,3.50
2018-12-07T04:06:39.204Z,3.13
2018-12-07T04:09:08.777Z,3.40
2018-12-07T04:11:37.258Z,3.30
2018-12-07T04:14:05.718Z,3.07
2018-12-07T04:16:34.611Z,3.60
2018-12-07T04:19:03.410Z,3.10
2018-12-07T04:21:33.157Z,3.67
2018-12-07T04:24:01.592Z,3.37
2018-12-07T04:26:30.068Z,3.23
2018-12-07T04:28:58.961Z,3.27
2018-12-07T04:31:27.437Z,3.20
2018-12-07T04:33:55.876Z,3.30
2018-12-07T04:36:24.362Z,3.23
2018-12-07T04:38:53.173Z,2.97
2018-12-07T04:41:21.668Z,2.63
2018-12-07T04:43:50.102Z,2.83
2018-12-07T04:46:18.554Z,2.80
2018-12-07T04:48:47.829Z,2.80
2018-12-07T04:51:16.672Z,2.17
2018-12-07T04:53:45.139Z,2.10
2018-12-07T04:56:14.620Z,2.40
2018-12-07T04:58:43.074Z,2.10
2018-12-07T05:01:12.553Z,2.07
2018-12-07T05:03:41.026Z,2.10
2018-12-07T05:06:09.827Z,1.80
2018-12-07T05:08:38.561Z,2.00
2018-12-07T05:11:07.163Z,1.90
2018-12-07T05:13:35.610Z,1.77
2018-12-07T05:16:04.459Z,2.13
2018-12-07T05:18:33.042Z,2.10
2018-12-07T05:21:01.494Z,2.20
2018-12-07T05:23:29.968Z,2.40
2018-12-07T05:25:58.759Z,2.63
2018-12-07T05:28:27.234Z,2.57
2018-12-07T05:30:55.675Z,2.80
2018-12-07T05:33:24.142Z,3.33
2018-12-07T05:35:52.595Z,3.07
2018-12-07T05:38:21.769Z,3.40
2018-12-07T05:40:50.303Z,3.70
2018-12-07T05:43:18.770Z,3.60
2018-12-07T05:45:47.887Z,3.30
2018-12-07T05:48:23.485Z,3.40
2018-12-07T05:50:47.520Z,3.67
2018-12-07T05:53:15.971Z,3.20
2018-12-07T05:55:44.853Z,3.60
2018-12-07T05:58:13.308Z,3.80
2018-12-07T06:00:42.037Z,4.00
2018-12-07T06:03:10.705Z,3.40
2018-12-07T06:05:39.173Z,3.90
2018-12-07T06:08:07.623Z,4.07
2018-12-07T06:10:36.052Z,3.97
2018-12-07T06:13:06.427Z,4.17
2018-12-07T06:15:35.814Z,3.97
2018-12-07T06:18:04.308Z,4.20
2018-12-07T06:20:33.623Z,5.60
2018-12-07T06:23:02.586Z,4.40
2018-12-07T06:25:31.623Z,4.57
2018-12-07T06:28:01.531Z,4.00
2018-12-07T06:30:29.993Z,3.57
2018-12-07T06:32:59.458Z,3.40
2018-12-07T06:35:28.931Z,3.93
2018-12-07T06:37:57.737Z,4.47
2018-12-07T06:40:26.198Z,4.50
2018-12-07T06:42:55.150Z,4.20
2018-12-07T06:45:23.870Z,4.43
2018-12-07T06:47:52.338Z,4.37
2018-12-07T06:50:20.867Z,11.07
2018-12-07T06:52:50.083Z,4.80
2018-12-07T06:55:18.522Z,3.77
2018-12-07T06:57:48.238Z,3.40
2018-12-07T07:00:17.069Z,3.20
2018-12-07T07:02:45.516Z,3.50
2018-12-07T07:05:14.437Z,3.60
2018-12-07T07:07:51.816Z,4.10
2018-12-07T07:10:20.385Z,4.00
2018-12-07T07:12:50.263Z,4.70
2018-12-07T07:15:46.817Z,5.00
2018-12-07T07:18:23.314Z,5.30
2018-12-07T07:20:56.573Z,5.80
2018-12-07T07:23:48.188Z,5.40
2018-12-07T07:26:16.716Z,6.30
2018-12-07T07:28:45.497Z,6.00
2018-12-07T07:31:13.942Z,6.70
2018-12-07T07:33:57.205Z,6.50
2018-12-07T07:36:33.328Z,7.57
2018-12-07T07:39:12.096Z,6.87
2018-12-07T07:41:43.641Z,6.63
2018-12-07T07:44:19.032Z,6.60
2018-12-07T07:46:50.828Z,6.67
2018-12-07T07:49:23.472Z,5.93
2018-12-07T07:51:58.498Z,5.40
2018-12-07T07:54:28.662Z,5.40
2018-12-07T07:56:57.258Z,5.00
2018-12-07T07:59:31.978Z,4.90
2018-12-07T08:02:08.559Z,4.77
2018-12-07T08:04:40.325Z,4.60
2018-12-07T08:07:08.771Z,3.50
2018-12-07T08:09:38.099Z,3.67
2018-12-07T08:12:13.090Z,3.20
2018-12-07T08:14:42.122Z,2.70
2018-12-07T08:17:17.815Z,2.80
2018-12-07T08:19:53.688Z,2.50
2018-12-07T08:22:28.937Z,2.50
2018-12-07T08:25:00.943Z,2.70
2018-12-07T08:27:30.151Z,2.87
2018-12-07T08:29:59.571Z,3.07
2018-12-07T08:32:29.284Z,3.50
2018-12-07T08:35:14.295Z,3.57
2018-12-07T08:37:44.680Z,3.77
2018-12-07T08:40:18.397Z,5.10
2018-12-07T08:43:15.375Z,5.30
2018-12-07T08:46:17.774Z,6.57
2018-12-07T08:48:48.995Z,6.13
2018-12-07T08:51:19.056Z,6.57
2018-12-07T08:53:47.836Z,7.50
2018-12-07T08:56:30.470Z,7.10
2018-12-07T08:59:00.439Z,7.87
2018-12-07T09:01:30.132Z,7.90
2018-12-07T09:04:01.740Z,7.73
2018-12-07T09:06:35.823Z,7.80
2018-12-07T09:09:09.356Z,7.07
2018-12-07T09:11:46.982Z,7.30
2018-12-07T09:14:16.454Z,6.97
2018-12-07T09:16:45.741Z,7.20
2018-12-07T09:19:14.894Z,6.10
2018-12-07T09:21:45.914Z,6.70
2018-12-07T09:24:23.016Z,6.30
2018-12-07T09:26:51.729Z,6.20
2018-12-07T09:29:20.164Z,5.57
2018-12-07T09:31:49.339Z,6.17
2018-12-07T09:34:17.784Z,6.10
2018-12-07T09:36:46.229Z,5.97
2018-12-07T09:39:14.682Z,5.43
2018-12-07T09:41:49.198Z,5.10
2018-12-07T09:44:25.031Z,5.03
2018-12-07T09:47:02.555Z,5.30
2018-12-07T09:49:35.049Z,4.87
2018-12-07T09:52:05.817Z,4.70
2018-12-07T09:54:42.200Z,4.80
2018-12-07T09:57:30.737Z,4.50
2018-12-07T10:00:04.376Z,4.53
2018-12-07T10:02:37.037Z,5.07
2018-12-07T10:05:13.416Z,4.13
2018-12-07T10:07:48.520Z,5.00
2018-12-07T10:10:28.047Z,4.80
2018-12-07T10:13:08.099Z,4.87
2018-12-07T10:15:43.022Z,5.30
2018-12-07T10:18:14.474Z,5.07
2018-12-07T10:20:45.281Z,4.83
2018-12-07T10:25:52.843Z,5.57
2018-12-07T10:28:21.514Z,5.10
2018-12-07T10:30:50.231Z,4.40
2018-12-07T10:33:28.547Z,4.63
2018-12-07T10:36:00.931Z,4.70
2018-12-07T10:38:30.443Z,3.83
2018-12-07T10:40:59.258Z,3.80
2018-12-07T10:43:37.475Z,4.00
2018-12-07T10:46:06.813Z,3.93
2018-12-07T10:48:38.227Z,3.53
2018-12-07T10:51:08.170Z,3.57
2018-12-07T10:53:41.975Z,3.27
2018-12-07T10:56:12.038Z,3.60
2018-12-07T10:58:40.731Z,3.77
2018-12-07T11:01:14.396Z,3.50
2018-12-07T11:03:48.121Z,3.40
2018-12-07T11:06:22.227Z,3.73
2018-12-07T11:08:56.184Z,4.00
2018-12-07T11:11:29.709Z,3.20
2018-12-07T11:14:06.229Z,3.40
2018-12-07T11:18:44.241Z,3.60
2018-12-07T11:21:17.729Z,4.00
2018-12-07T11:23:51.406Z,3.40
2018-12-07T11:26:25.567Z,3.40
2018-12-07T11:28:59.374Z,3.63
2018-12-07T11:31:33.447Z,3.47
2018-12-07T11:34:11.144Z,3.90
2018-12-07T11:36:44.856Z,4.43
2018-12-07T11:39:17.845Z,3.50
2018-12-07T11:41:47.559Z,3.90
2018-12-07T11:44:16.471Z,4.00
2018-12-07T11:46:45.402Z,4.30
2018-12-07T11:49:15.198Z,3.50
2018-12-07T11:51:46.514Z,3.77
2018-12-07T11:54:16.000Z,4.37
2018-12-07T11:56:44.433Z,3.93
2018-12-07T11:59:13.191Z,3.67
2018-12-07T12:01:50.809Z,3.90
2018-12-07T12:04:21.475Z,3.53
2018-12-07T12:06:55.403Z,3.23
2018-12-07T12:09:25.278Z,3.10
2018-12-07T12:11:54.226Z,2.93
2018-12-07T12:14:22.744Z,3.23
2018-12-07T12:16:51.186Z,2.93
2018-12-07T12:19:19.666Z,2.67
2018-12-07T12:21:48.125Z,3.00
2018-12-07T12:24:16.871Z,2.60
2018-12-07T12:26:45.619Z,2.17
2018-12-07T12:29:14.071Z,2.43
2018-12-07T12:31:43.113Z,2.67
2018-12-07T12:34:12.882Z,2.53
2018-12-07T12:36:41.346Z,2.30
2018-12-07T12:39:10.124Z,2.50
2018-12-07T12:41:43.549Z,2.50
2018-12-07T12:44:09.367Z,3.70
2018-12-07T12:46:37.823Z,2.90
2018-12-07T12:49:06.277Z,2.90
2018-12-07T12:51:35.163Z,3.07
2018-12-07T12:54:03.597Z,2.77
2018-12-07T12:56:32.054Z,2.80
2018-12-07T12:59:00.498Z,4.77
2018-12-07T13:01:29.335Z,2.63
2018-12-07T13:03:57.828Z,3.10
2018-12-07T13:06:26.906Z,3.23
2018-12-07T13:08:55.370Z,3.30
2018-12-07T13:11:23.849Z,3.17
2018-12-07T13:13:52.690Z,3.50
2018-12-07T13:16:21.241Z,3.00
2018-12-07T13:18:49.689Z,3.10
2018-12-07T13:21:18.167Z,3.20
2018-12-07T13:23:46.719Z,3.30
2018-12-07T13:26:15.197Z,3.10
2018-12-07T13:28:43.656Z,3.33
2018-12-07T13:31:12.108Z,3.10
2018-12-07T13:33:40.585Z,3.47
2018-12-07T13:36:09.398Z,2.73
2018-12-07T13:38:39.398Z,3.20
2018-12-07T13:41:08.795Z,3.23
2018-12-07T13:43:37.585Z,3.40
2018-12-07T13:46:14.926Z,4.00
2018-12-07T13:48:46.390Z,3.33
2018-12-07T13:51:17.785Z,3.80
2018-12-07T13:53:46.931Z,2.93
2018-12-07T13:56:23.139Z,3.60
2018-12-07T13:58:56.711Z,2.63
2018-12-07T14:01:30.323Z,2.77
2018-12-07T14:04:09.675Z,3.10
2018-12-07T14:06:40.322Z,2.83
2018-12-07T14:09:09.437Z,3.10
2018-12-07T14:11:39.699Z,2.73
2018-12-07T14:14:10.880Z,2.83
2018-12-07T14:16:42.950Z,2.40
2018-12-07T14:19:13.097Z,2.20
2018-12-07T14:21:44.381Z,2.80
2018-12-07T14:24:13.407Z,2.13
2018-12-07T14:26:43.480Z,1.67
2018-12-07T14:29:13.803Z,1.67
2018-12-07T14:31:45.566Z,1.43
2018-12-07T14:34:14.766Z,1.47
2018-12-07T14:37:01.141Z,1.93
2018-12-07T14:39:31.460Z,1.73
2018-12-07T14:42:04.545Z,1.53
2018-12-07T14:44:37.647Z,2.20
2018-12-07T14:47:07.448Z,1.97
2018-12-07T14:49:36.848Z,2.20
2018-12-07T14:52:07.134Z,4.47
2018-12-07T14:54:48.042Z,7.03
2018-12-07T14:57:17.167Z,2.17
2018-12-07T14:59:47.502Z,2.07
2018-12-07T15:02:16.747Z,1.30
2018-12-07T15:04:45.502Z,1.47
2018-12-07T15:07:17.584Z,1.60
2018-12-07T15:09:48.324Z,1.17
2018-12-07T15:12:23.047Z,1.17
2018-12-07T15:14:52.231Z,1.17
2018-12-07T15:17:22.721Z,1.07
2018-12-07T15:19:55.484Z,5.60
2018-12-07T15:22:26.387Z,1.57
2018-12-07T15:24:55.738Z,1.00
2018-12-07T15:27:27.781Z,1.20
2018-12-07T15:29:56.684Z,1.07
2018-12-07T15:32:26.888Z,1.27
2018-12-07T15:34:55.448Z,1.50
2018-12-07T15:37:25.692Z,1.57
2018-12-07T15:39:54.522Z,1.43
2018-12-07T15:42:23.091Z,1.70
2018-12-07T15:44:52.086Z,1.00
2018-12-07T15:47:20.697Z,1.20
2018-12-07T15:49:50.492Z,1.50
2018-12-07T15:52:19.171Z,1.90
2018-12-07T15:54:48.097Z,1.97
2018-12-07T15:57:17.074Z,1.23
2018-12-07T15:59:45.617Z,2.20
2018-12-07T16:02:21.170Z,1.20
2018-12-07T16:04:49.756Z,1.93
2018-12-07T16:07:19.125Z,1.40
2018-12-07T16:09:49.892Z,1.40
2018-12-07T16:12:25.668Z,1.60
2018-12-07T16:14:59.796Z,1.10
2018-12-07T16:17:30.287Z,0.70
2018-12-07T16:19:59.246Z,0.70
2018-12-07T16:22:29.414Z,0.80
2018-12-07T16:25:01.200Z,0.73
2018-12-07T16:27:31.248Z,0.70
2018-12-07T16:30:02.575Z,0.70
2018-12-07T16:32:36.873Z,0.63
2018-12-07T16:35:06.984Z,0.60
2018-12-07T16:37:35.613Z,0.70
2018-12-07T16:40:05.152Z,0.80
2018-12-07T16:42:33.629Z,1.00
2018-12-07T16:45:04.899Z,0.80
2018-12-07T16:50:12.423Z,0.90
2018-12-07T16:52:41.672Z,0.60
2018-12-07T16:55:14.136Z,0.90
2018-12-07T16:57:42.849Z,0.60
2018-12-07T17:00:12.550Z,1.00
2018-12-07T17:02:42.360Z,0.83
2018-12-07T17:05:11.455Z,1.20
2018-12-07T17:07:40.108Z,1.20
2018-12-07T17:10:09.111Z,1.20
2018-12-07T17:12:38.143Z,1.70
2018-12-07T17:15:08.001Z,1.50
2018-12-07T17:17:38.724Z,1.73
2018-12-07T17:20:08.740Z,1.87
2018-12-07T17:22:40.945Z,2.00
2018-12-07T17:25:09.762Z,1.93
2018-12-07T17:27:38.741Z,1.97
2018-12-07T17:30:08.439Z,1.60
2018-12-07T17:32:37.775Z,2.80
2018-12-07T17:35:07.035Z,1.67
2018-12-07T17:37:37.869Z,1.40
2018-12-07T17:40:09.004Z,1.60
2018-12-07T17:42:40.770Z,1.33
2018-12-07T17:45:09.978Z,1.43
2018-12-07T17:47:38.414Z,1.57
2018-12-07T17:50:10.688Z,1.43
2018-12-07T17:52:42.496Z,1.43
2018-12-07T17:55:27.371Z,1.50
2018-12-07T17:57:57.662Z,1.87
2018-12-07T18:00:27.750Z,1.77
2018-12-07T18:02:57.152Z,1.70
2018-12-07T18:05:26.818Z,1.80
2018-12-07T18:08:01.581Z,1.60
2018-12-07T18:10:30.208Z,2.00
2018-12-07T18:13:01.448Z,1.70
2018-12-07T18:15:30.812Z,2.00
2018-12-07T18:18:01.524Z,2.60
2018-12-07T18:20:31.771Z,2.27
2018-12-07T18:23:01.479Z,2.00
2018-12-07T18:25:30.896Z,2.07
2018-12-07T18:28:06.428Z,2.50
2018-12-07T18:30:37.441Z,2.37
2018-12-07T18:33:08.616Z,2.40
2018-12-07T18:35:37.877Z,1.97
2018-12-07T18:38:07.937Z,2.50
2018-12-07T18:40:37.987Z,2.47
2018-12-07T18:43:06.533Z,2.27
2018-12-07T18:45:35.133Z,2.50
2018-12-07T18:48:08.328Z,2.57
2018-12-07T18:50:37.422Z,2.40
2018-12-07T18:53:07.773Z,3.10
2018-12-07T18:55:37.849Z,8.63
2018-12-07T18:58:08.611Z,6.20
2018-12-07T19:00:40.234Z,8.97
2018-12-07T19:03:17.394Z,5.70
2018-12-07T19:05:47.338Z,14.23
2018-12-07T19:08:28.135Z,5.83
2018-12-07T19:10:58.965Z,4.60
2018-12-07T19:13:35.373Z,13.70
2018-12-07T19:16:05.118Z,4.93
2018-12-07T19:18:38.444Z,4.73
2018-12-07T19:21:14.071Z,8.73
2018-12-07T19:23:43.726Z,3.87
2018-12-07T19:26:14.151Z,8.27
2018-12-07T19:28:43.659Z,10.93
2018-12-07T19:31:12.861Z,4.50
2018-12-07T19:33:42.053Z,1.57
2018-12-07T19:36:10.871Z,1.80
2018-12-07T19:38:40.451Z,1.63
2018-12-07T19:41:09.591Z,1.40
2018-12-07T19:43:38.226Z,1.00
2018-12-07T19:46:07.808Z,0.97
2018-12-07T19:48:37.242Z,0.60
2018-12-07T19:51:07.301Z,0.37
2018-12-07T19:53:37.701Z,0.43
2018-12-07T19:56:07.354Z,0.40
2018-12-07T19:58:37.539Z,0.60
2018-12-07T20:01:17.051Z,0.50
2018-12-07T20:03:49.008Z,0.60
2018-12-07T20:06:19.683Z,0.60
2018-12-07T20:08:52.092Z,0.90
2018-12-07T20:11:21.242Z,0.60
2018-12-07T20:13:52.369Z,0.40
2018-12-07T20:16:21.287Z,0.40
2018-12-07T20:18:49.838Z,0.30
2018-12-07T20:21:18.918Z,0.53
2018-12-07T20:23:47.407Z,0.53
2018-12-07T20:26:16.834Z,0.50
2018-12-07T20:28:46.062Z,0.47
2018-12-07T20:31:16.050Z,0.57
2018-12-07T20:33:46.681Z,0.40
2018-12-07T20:36:15.310Z,0.50
2018-12-07T20:38:44.144Z,0.30
2018-12-07T20:41:14.441Z,0.60
2018-12-07T20:43:43.683Z,0.30
2018-12-07T20:46:12.782Z,0.40
2018-12-07T20:48:42.115Z,0.50
2018-12-07T20:51:12.158Z,0.43
2018-12-07T20:53:40.842Z,0.50
2018-12-07T20:56:09.446Z,0.57
2018-12-07T20:58:38.466Z,0.40
2018-12-07T21:01:07.380Z,0.40
2018-12-07T21:03:51.531Z,0.50
2018-12-07T21:07:49.271Z,0.30
2018-12-07T21:12:38.528Z,0.50
2018-12-07T21:15:08.686Z,0.97
2018-12-07T21:17:38.185Z,0.40
2018-12-07T21:20:21.678Z,0.40
2018-12-07T21:22:50.952Z,0.43
2018-12-07T21:25:20.364Z,0.60
2018-12-07T21:27:49.414Z,0.30
2018-12-07T21:30:50.378Z,0.43
2018-12-07T21:35:28.877Z,0.40
2018-12-07T21:37:58.219Z,0.50
2018-12-07T21:40:30.223Z,0.77
2018-12-07T21:42:59.137Z,0.80
2018-12-07T21:45:28.749Z,0.70
2018-12-07T21:48:22.982Z,0.77
2018-12-07T21:51:59.977Z,0.90
2018-12-07T21:54:28.953Z,1.30
2018-12-07T21:56:58.410Z,0.87
2018-12-07T21:59:27.084Z,0.90
2018-12-07T22:01:56.334Z,1.63
2018-12-07T22:04:25.847Z,2.50
2018-12-07T22:06:55.100Z,1.13
2018-12-07T22:09:24.752Z,1.23
2018-12-07T22:11:53.320Z,1.10
2018-12-07T22:14:23.263Z,1.00
2018-12-07T22:16:52.831Z,1.13
2018-12-07T22:19:22.658Z,1.47
2018-12-07T22:21:51.510Z,1.23
2018-12-07T22:24:20.293Z,1.10
2018-12-07T22:26:49.019Z,5.97
2018-12-07T22:29:19.435Z,1.77
2018-12-07T22:31:49.092Z,1.53
2018-12-07T22:34:18.208Z,1.50
2018-12-07T22:36:46.688Z,1.90
2018-12-07T22:39:16.284Z,1.60
2018-12-07T22:41:45.082Z,1.20
2018-12-07T22:44:14.195Z,1.53
2018-12-07T22:46:43.149Z,3.63
2018-12-07T22:49:11.596Z,6.50
2018-12-07T22:51:40.092Z,2.57
2018-12-07T22:54:08.587Z,3.27
2018-12-07T22:56:37.366Z,2.10
2018-12-07T22:59:06.251Z,1.20
2018-12-07T23:01:36.300Z,1.27
2018-12-07T23:04:04.760Z,1.50
2018-12-07T23:06:34.691Z,1.83
2018-12-07T23:09:06.163Z,1.50
2018-12-07T23:11:34.833Z,1.10
2018-12-07T23:14:05.153Z,1.50
2018-12-07T23:16:34.006Z,1.30
2018-12-07T23:19:02.516Z,1.30
2018-12-07T23:21:30.979Z,1.40
2018-12-07T23:23:59.618Z,1.80
2018-12-07T23:26:28.863Z,1.60
2018-12-07T23:28:57.751Z,1.73
2018-12-07T23:31:26.738Z,1.67
2018-12-07T23:33:56.108Z,1.80
2018-12-07T23:36:24.561Z,1.90
2018-12-07T23:38:53.020Z,1.73
2018-12-07T23:41:21.486Z,1.80
2018-12-07T23:43:49.977Z,1.97
2018-12-07T23:46:18.947Z,1.43
2018-12-07T23:48:47.420Z,2.27
2018-12-07T23:51:15.862Z,1.93
2018-12-07T23:53:44.322Z,2.17
2018-12-07T23:56:12.767Z,1.73
2018-12-07T23:58:41.230Z,1.87
